sensor_id;sensor_type;location;lat;lon;timestamp;P1;durP1;ratioP1;P2;durP2;ratioP2
61527;SDS011;47395;42.032;-8.634;2023-07-22T00:00:42;5.70;;;4.95;;
61527;SDS011;47395;42.032;-8.634;2023-07-22T00:02:43;5.85;;;4.72;;
61527;SDS011;47395;42.032;-8.634;2023-07-22T00:04:44;8.77;;;4.53;;
61527;SDS011;47395;42.032;-8.634;2023-07-22T00:06:44;5.57;;;4.70;;
61527;SDS011;47395;42.032;-8.634;2023-07-22T00:08:45;5.35;;;4.80;;
61527;SDS011;47395;42.032;-8.634;2023-07-22T00:10:46;6.28;;;4.97;;
61527;SDS011;47395;42.032;-8.634;2023-07-22T00:12:47;7.22;;;4.88;;
61527;SDS011;47395;42.032;-8.634;2023-07-22T00:14:48;6.90;;;4.60;;
61527;SDS011;47395;42.032;-8.634;2023-07-22T00:16:49;7.25;;;4.53;;
61527;SDS011;47395;42.032;-8.634;2023-07-22T00:18:50;4.68;;;4.13;;
61527;SDS011;47395;42.032;-8.634;2023-07-22T00:20:51;7.13;;;3.88;;
61527;SDS011;47395;42.032;-8.634;2023-07-22T00:22:52;4.32;;;4.03;;
61527;SDS011;47395;42.032;-8.634;2023-07-22T00:24:53;3.83;;;3.38;;
61527;SDS011;47395;42.032;-8.634;2023-07-22T00:26:54;7.43;;;3.70;;
61527;SDS011;47395;42.032;-8.634;2023-07-22T00:28:55;4.63;;;4.20;;
61527;SDS011;47395;42.032;-8.634;2023-07-22T00:30:56;5.30;;;4.22;;
61527;SDS011;47395;42.032;-8.634;2023-07-22T00:32:57;4.63;;;4.13;;
61527;SDS011;47395;42.032;-8.634;2023-07-22T00:34:58;4.65;;;4.05;;
61527;SDS011;47395;42.032;-8.634;2023-07-22T00:36:59;4.10;;;3.80;;
61527;SDS011;47395;42.032;-8.634;2023-07-22T00:39:00;7.07;;;4.00;;
61527;SDS011;47395;42.032;-8.634;2023-07-22T00:41:01;3.80;;;3.60;;
61527;SDS011;47395;42.032;-8.634;2023-07-22T00:43:05;3.50;;;3.30;;
61527;SDS011;47395;42.032;-8.634;2023-07-22T00:45:07;3.83;;;3.53;;
61527;SDS011;47395;42.032;-8.634;2023-07-22T00:47:09;4.70;;;4.00;;
61527;SDS011;47395;42.032;-8.634;2023-07-22T00:49:10;3.72;;;3.42;;
61527;SDS011;47395;42.032;-8.634;2023-07-22T00:51:14;4.72;;;3.90;;
61527;SDS011;47395;42.032;-8.634;2023-07-22T00:53:15;4.07;;;3.78;;
61527;SDS011;47395;42.032;-8.634;2023-07-22T00:55:18;4.75;;;4.28;;
61527;SDS011;47395;42.032;-8.634;2023-07-22T00:57:19;9.48;;;3.50;;
61527;SDS011;47395;42.032;-8.634;2023-07-22T00:59:21;4.38;;;3.80;;
61527;SDS011;47395;42.032;-8.634;2023-07-22T01:01:22;3.70;;;3.50;;
61527;SDS011;47395;42.032;-8.634;2023-07-22T01:03:23;4.20;;;3.80;;
61527;SDS011;47395;42.032;-8.634;2023-07-22T01:05:26;4.82;;;3.78;;
61527;SDS011;47395;42.032;-8.634;2023-07-22T01:07:28;4.07;;;3.63;;
61527;SDS011;47395;42.032;-8.634;2023-07-22T01:09:34;5.18;;;4.22;;
61527;SDS011;47395;42.032;-8.634;2023-07-22T01:11:36;6.07;;;4.13;;
61527;SDS011;47395;42.032;-8.634;2023-07-22T01:13:37;4.68;;;4.07;;
61527;SDS011;47395;42.032;-8.634;2023-07-22T01:15:38;4.82;;;4.38;;
61527;SDS011;47395;42.032;-8.634;2023-07-22T01:17:39;5.47;;;4.10;;
61527;SDS011;47395;42.032;-8.634;2023-07-22T01:19:40;4.35;;;4.05;;
61527;SDS011;47395;42.032;-8.634;2023-07-22T01:21:41;7.75;;;4.97;;
61527;SDS011;47395;42.032;-8.634;2023-07-22T01:23:43;4.90;;;4.50;;
61527;SDS011;47395;42.032;-8.634;2023-07-22T01:25:44;7.07;;;4.78;;
61527;SDS011;47395;42.032;-8.634;2023-07-22T01:27:45;5.05;;;4.65;;
61527;SDS011;47395;42.032;-8.634;2023-07-22T01:29:46;7.80;;;5.25;;
61527;SDS011;47395;42.032;-8.634;2023-07-22T01:31:47;5.43;;;4.25;;
61527;SDS011;47395;42.032;-8.634;2023-07-22T01:33:50;5.25;;;4.35;;
61527;SDS011;47395;42.032;-8.634;2023-07-22T01:35:53;5.07;;;4.60;;
61527;SDS011;47395;42.032;-8.634;2023-07-22T01:37:55;5.18;;;4.78;;
61527;SDS011;47395;42.032;-8.634;2023-07-22T01:39:55;8.13;;;4.68;;
61527;SDS011;47395;42.032;-8.634;2023-07-22T01:41:57;5.20;;;4.72;;
61527;SDS011;47395;42.032;-8.634;2023-07-22T01:43:58;4.88;;;4.45;;
61527;SDS011;47395;42.032;-8.634;2023-07-22T01:46:00;9.27;;;4.90;;
61527;SDS011;47395;42.032;-8.634;2023-07-22T01:48:02;4.53;;;4.13;;
61527;SDS011;47395;42.032;-8.634;2023-07-22T01:50:03;4.60;;;4.20;;
61527;SDS011;47395;42.032;-8.634;2023-07-22T01:52:06;8.38;;;4.75;;
61527;SDS011;47395;42.032;-8.634;2023-07-22T01:54:07;4.82;;;4.43;;
61527;SDS011;47395;42.032;-8.634;2023-07-22T01:56:10;4.40;;;4.10;;
61527;SDS011;47395;42.032;-8.634;2023-07-22T01:58:10;4.85;;;4.30;;
61527;SDS011;47395;42.032;-8.634;2023-07-22T02:00:12;4.95;;;4.55;;
61527;SDS011;47395;42.032;-8.634;2023-07-22T02:02:15;8.85;;;4.78;;
61527;SDS011;47395;42.032;-8.634;2023-07-22T02:04:16;4.93;;;4.32;;
61527;SDS011;47395;42.032;-8.634;2023-07-22T02:06:17;7.88;;;4.72;;
61527;SDS011;47395;42.032;-8.634;2023-07-22T02:08:18;7.68;;;4.78;;
61527;SDS011;47395;42.032;-8.634;2023-07-22T02:10:19;6.05;;;5.45;;
61527;SDS011;47395;42.032;-8.634;2023-07-22T02:12:20;6.18;;;5.15;;
61527;SDS011;47395;42.032;-8.634;2023-07-22T02:14:21;8.10;;;5.22;;
61527;SDS011;47395;42.032;-8.634;2023-07-22T02:16:21;9.57;;;5.55;;
61527;SDS011;47395;42.032;-8.634;2023-07-22T02:18:22;9.15;;;5.65;;
61527;SDS011;47395;42.032;-8.634;2023-07-22T02:20:23;5.72;;;5.22;;
61527;SDS011;47395;42.032;-8.634;2023-07-22T02:22:27;5.05;;;4.65;;
61527;SDS011;47395;42.032;-8.634;2023-07-22T02:24:27;6.88;;;5.00;;
61527;SDS011;47395;42.032;-8.634;2023-07-22T02:26:29;5.45;;;4.95;;
61527;SDS011;47395;42.032;-8.634;2023-07-22T02:28:30;11.55;;;4.95;;
61527;SDS011;47395;42.032;-8.634;2023-07-22T02:30:33;5.18;;;4.72;;
61527;SDS011;47395;42.032;-8.634;2023-07-22T02:32:36;8.07;;;4.63;;
61527;SDS011;47395;42.032;-8.634;2023-07-22T02:34:38;4.72;;;4.28;;
61527;SDS011;47395;42.032;-8.634;2023-07-22T02:36:39;5.55;;;5.10;;
61527;SDS011;47395;42.032;-8.634;2023-07-22T02:38:40;11.15;;;4.57;;
61527;SDS011;47395;42.032;-8.634;2023-07-22T02:40:42;5.90;;;4.70;;
61527;SDS011;47395;42.032;-8.634;2023-07-22T02:42:44;5.32;;;4.88;;
61527;SDS011;47395;42.032;-8.634;2023-07-22T02:44:45;5.72;;;5.22;;
61527;SDS011;47395;42.032;-8.634;2023-07-22T02:46:47;9.30;;;4.88;;
61527;SDS011;47395;42.032;-8.634;2023-07-22T02:48:48;5.30;;;4.82;;
61527;SDS011;47395;42.032;-8.634;2023-07-22T02:50:49;5.25;;;4.75;;
61527;SDS011;47395;42.032;-8.634;2023-07-22T02:52:50;5.90;;;5.30;;
61527;SDS011;47395;42.032;-8.634;2023-07-22T02:57:25;6.10;;;5.53;;
61527;SDS011;47395;42.032;-8.634;2023-07-22T02:59:26;6.97;;;5.20;;
61527;SDS011;47395;42.032;-8.634;2023-07-22T03:01:27;7.85;;;5.72;;
61527;SDS011;47395;42.032;-8.634;2023-07-22T03:03:28;6.78;;;4.72;;
61527;SDS011;47395;42.032;-8.634;2023-07-22T03:05:29;5.55;;;4.78;;
61527;SDS011;47395;42.032;-8.634;2023-07-22T03:07:31;5.28;;;4.43;;
61527;SDS011;47395;42.032;-8.634;2023-07-22T03:09:32;8.43;;;5.50;;
61527;SDS011;47395;42.032;-8.634;2023-07-22T03:11:32;5.60;;;5.07;;
61527;SDS011;47395;42.032;-8.634;2023-07-22T03:13:35;4.40;;;4.18;;
61527;SDS011;47395;42.032;-8.634;2023-07-22T03:15:36;7.47;;;4.55;;
61527;SDS011;47395;42.032;-8.634;2023-07-22T03:17:37;5.00;;;4.70;;
61527;SDS011;47395;42.032;-8.634;2023-07-22T03:19:39;5.93;;;5.30;;
61527;SDS011;47395;42.032;-8.634;2023-07-22T03:21:41;5.82;;;4.95;;
61527;SDS011;47395;42.032;-8.634;2023-07-22T03:23:42;6.88;;;5.15;;
61527;SDS011;47395;42.032;-8.634;2023-07-22T03:25:43;5.32;;;4.72;;
61527;SDS011;47395;42.032;-8.634;2023-07-22T03:27:45;6.13;;;5.57;;
61527;SDS011;47395;42.032;-8.634;2023-07-22T03:29:46;11.88;;;4.72;;
61527;SDS011;47395;42.032;-8.634;2023-07-22T03:31:48;7.38;;;4.60;;
61527;SDS011;47395;42.032;-8.634;2023-07-22T03:33:49;7.95;;;4.75;;
61527;SDS011;47395;42.032;-8.634;2023-07-22T03:35:50;3.60;;;3.40;;
61527;SDS011;47395;42.032;-8.634;2023-07-22T03:37:51;4.60;;;4.20;;
61527;SDS011;47395;42.032;-8.634;2023-07-22T03:39:52;3.88;;;3.67;;
61527;SDS011;47395;42.032;-8.634;2023-07-22T03:41:53;4.18;;;3.75;;
61527;SDS011;47395;42.032;-8.634;2023-07-22T03:43:54;4.70;;;3.72;;
61527;SDS011;47395;42.032;-8.634;2023-07-22T03:45:56;3.67;;;3.38;;
61527;SDS011;47395;42.032;-8.634;2023-07-22T03:47:57;4.43;;;4.07;;
61527;SDS011;47395;42.032;-8.634;2023-07-22T03:50:01;5.25;;;3.80;;
61527;SDS011;47395;42.032;-8.634;2023-07-22T03:52:02;3.72;;;3.08;;
61527;SDS011;47395;42.032;-8.634;2023-07-22T03:54:05;2.85;;;2.75;;
61527;SDS011;47395;42.032;-8.634;2023-07-22T03:56:07;2.95;;;2.80;;
61527;SDS011;47395;42.032;-8.634;2023-07-22T03:58:08;3.35;;;3.05;;
61527;SDS011;47395;42.032;-8.634;2023-07-22T04:00:09;3.03;;;2.83;;
61527;SDS011;47395;42.032;-8.634;2023-07-22T04:06:45;3.25;;;3.03;;
61527;SDS011;47395;42.032;-8.634;2023-07-22T04:08:51;4.50;;;2.90;;
61527;SDS011;47395;42.032;-8.634;2023-07-22T04:10:57;2.90;;;2.70;;
61527;SDS011;47395;42.032;-8.634;2023-07-22T04:13:01;3.67;;;3.00;;
61527;SDS011;47395;42.032;-8.634;2023-07-22T04:15:09;2.90;;;2.70;;
61527;SDS011;47395;42.032;-8.634;2023-07-22T04:17:17;2.60;;;2.50;;
61527;SDS011;47395;42.032;-8.634;2023-07-22T04:19:27;4.30;;;3.10;;
61527;SDS011;47395;42.032;-8.634;2023-07-22T04:21:30;3.30;;;3.10;;
61527;SDS011;47395;42.032;-8.634;2023-07-22T04:23:32;3.60;;;3.28;;
61527;SDS011;47395;42.032;-8.634;2023-07-22T04:25:38;2.92;;;2.83;;
61527;SDS011;47395;42.032;-8.634;2023-07-22T04:27:42;4.10;;;3.80;;
61527;SDS011;47395;42.032;-8.634;2023-07-22T04:29:47;3.92;;;3.70;;
61527;SDS011;47395;42.032;-8.634;2023-07-22T04:31:51;3.85;;;3.53;;
61527;SDS011;47395;42.032;-8.634;2023-07-22T04:34:01;3.88;;;3.58;;
61527;SDS011;47395;42.032;-8.634;2023-07-22T04:36:08;6.07;;;5.50;;
61527;SDS011;47395;42.032;-8.634;2023-07-22T04:38:10;7.70;;;5.60;;
61527;SDS011;47395;42.032;-8.634;2023-07-22T04:40:14;4.38;;;4.15;;
61527;SDS011;47395;42.032;-8.634;2023-07-22T04:42:18;3.17;;;2.92;;
61527;SDS011;47395;42.032;-8.634;2023-07-22T04:44:22;3.45;;;3.20;;
61527;SDS011;47395;42.032;-8.634;2023-07-22T04:46:29;3.60;;;3.30;;
61527;SDS011;47395;42.032;-8.634;2023-07-22T04:48:33;2.97;;;2.88;;
61527;SDS011;47395;42.032;-8.634;2023-07-22T04:50:43;3.05;;;2.85;;
61527;SDS011;47395;42.032;-8.634;2023-07-22T04:52:46;3.97;;;3.00;;
61527;SDS011;47395;42.032;-8.634;2023-07-22T04:54:48;2.75;;;2.53;;
61527;SDS011;47395;42.032;-8.634;2023-07-22T04:56:53;2.67;;;2.47;;
61527;SDS011;47395;42.032;-8.634;2023-07-22T05:01:01;3.00;;;2.80;;
61527;SDS011;47395;42.032;-8.634;2023-07-22T05:03:02;2.83;;;2.72;;
61527;SDS011;47395;42.032;-8.634;2023-07-22T05:07:10;3.40;;;3.20;;
61527;SDS011;47395;42.032;-8.634;2023-07-22T05:09:12;3.03;;;2.88;;
61527;SDS011;47395;42.032;-8.634;2023-07-22T05:11:21;2.78;;;2.60;;
61527;SDS011;47395;42.032;-8.634;2023-07-22T05:13:26;2.78;;;2.67;;
61527;SDS011;47395;42.032;-8.634;2023-07-22T05:15:27;12.85;;;2.90;;
61527;SDS011;47395;42.032;-8.634;2023-07-22T05:17:28;2.80;;;2.60;;
61527;SDS011;47395;42.032;-8.634;2023-07-22T05:19:31;3.10;;;2.80;;
61527;SDS011;47395;42.032;-8.634;2023-07-22T05:21:35;2.78;;;2.65;;
61527;SDS011;47395;42.032;-8.634;2023-07-22T05:23:36;3.13;;;2.83;;
61527;SDS011;47395;42.032;-8.634;2023-07-22T05:25:37;2.72;;;2.60;;
61527;SDS011;47395;42.032;-8.634;2023-07-22T05:27:40;2.83;;;2.63;;
61527;SDS011;47395;42.032;-8.634;2023-07-22T05:29:42;2.72;;;2.63;;
61527;SDS011;47395;42.032;-8.634;2023-07-22T05:31:43;4.88;;;3.15;;
61527;SDS011;47395;42.032;-8.634;2023-07-22T05:33:47;3.30;;;3.10;;
61527;SDS011;47395;42.032;-8.634;2023-07-22T05:35:48;7.30;;;3.38;;
61527;SDS011;47395;42.032;-8.634;2023-07-22T05:37:49;4.20;;;3.40;;
61527;SDS011;47395;42.032;-8.634;2023-07-22T05:39:50;3.20;;;2.70;;
61527;SDS011;47395;42.032;-8.634;2023-07-22T05:41:51;4.10;;;2.95;;
61527;SDS011;47395;42.032;-8.634;2023-07-22T05:43:55;3.50;;;3.30;;
61527;SDS011;47395;42.032;-8.634;2023-07-22T05:45:56;3.08;;;2.97;;
61527;SDS011;47395;42.032;-8.634;2023-07-22T05:47:57;5.45;;;2.92;;
61527;SDS011;47395;42.032;-8.634;2023-07-22T05:49:58;3.17;;;2.97;;
61527;SDS011;47395;42.032;-8.634;2023-07-22T05:52:02;3.33;;;3.10;;
61527;SDS011;47395;42.032;-8.634;2023-07-22T05:54:07;2.95;;;2.75;;
61527;SDS011;47395;42.032;-8.634;2023-07-22T05:56:10;3.15;;;2.85;;
61527;SDS011;47395;42.032;-8.634;2023-07-22T05:58:15;5.07;;;3.28;;
61527;SDS011;47395;42.032;-8.634;2023-07-22T06:00:21;2.78;;;2.67;;
61527;SDS011;47395;42.032;-8.634;2023-07-22T06:02:22;3.17;;;2.97;;
61527;SDS011;47395;42.032;-8.634;2023-07-22T06:04:25;3.05;;;2.85;;
61527;SDS011;47395;42.032;-8.634;2023-07-22T06:06:27;3.17;;;3.00;;
61527;SDS011;47395;42.032;-8.634;2023-07-22T06:08:28;4.90;;;3.33;;
61527;SDS011;47395;42.032;-8.634;2023-07-22T06:10:29;3.40;;;3.20;;
61527;SDS011;47395;42.032;-8.634;2023-07-22T06:12:34;7.30;;;2.83;;
61527;SDS011;47395;42.032;-8.634;2023-07-22T06:14:36;3.25;;;2.97;;
61527;SDS011;47395;42.032;-8.634;2023-07-22T06:16:37;2.83;;;2.70;;
61527;SDS011;47395;42.032;-8.634;2023-07-22T06:18:38;3.20;;;2.90;;
61527;SDS011;47395;42.032;-8.634;2023-07-22T06:20:42;3.95;;;2.50;;
61527;SDS011;47395;42.032;-8.634;2023-07-22T06:22:43;2.72;;;2.60;;
61527;SDS011;47395;42.032;-8.634;2023-07-22T06:24:47;2.60;;;2.40;;
61527;SDS011;47395;42.032;-8.634;2023-07-22T06:26:51;2.40;;;2.30;;
61527;SDS011;47395;42.032;-8.634;2023-07-22T06:28:52;2.80;;;2.60;;
61527;SDS011;47395;42.032;-8.634;2023-07-22T06:30:57;2.58;;;2.40;;
61527;SDS011;47395;42.032;-8.634;2023-07-22T06:33:07;2.35;;;2.25;;
61527;SDS011;47395;42.032;-8.634;2023-07-22T06:35:11;6.35;;;2.40;;
61527;SDS011;47395;42.032;-8.634;2023-07-22T06:37:13;1.80;;;1.80;;
61527;SDS011;47395;42.032;-8.634;2023-07-22T06:39:17;2.65;;;2.08;;
61527;SDS011;47395;42.032;-8.634;2023-07-22T06:41:19;3.17;;;2.97;;
61527;SDS011;47395;42.032;-8.634;2023-07-22T06:43:23;2.40;;;2.20;;
61527;SDS011;47395;42.032;-8.634;2023-07-22T06:45:24;2.67;;;2.47;;
61527;SDS011;47395;42.032;-8.634;2023-07-22T06:47:25;2.53;;;2.42;;
61527;SDS011;47395;42.032;-8.634;2023-07-22T06:49:29;3.60;;;2.38;;
61527;SDS011;47395;42.032;-8.634;2023-07-22T06:51:30;2.78;;;2.58;;
61527;SDS011;47395;42.032;-8.634;2023-07-22T06:53:31;2.70;;;2.60;;
61527;SDS011;47395;42.032;-8.634;2023-07-22T06:55:32;2.38;;;2.17;;
61527;SDS011;47395;42.032;-8.634;2023-07-22T06:57:34;2.30;;;2.10;;
61527;SDS011;47395;42.032;-8.634;2023-07-22T06:59:35;6.32;;;2.45;;
61527;SDS011;47395;42.032;-8.634;2023-07-22T07:01:36;2.90;;;2.70;;
61527;SDS011;47395;42.032;-8.634;2023-07-22T07:03:40;2.70;;;2.50;;
61527;SDS011;47395;42.032;-8.634;2023-07-22T07:05:42;4.05;;;2.72;;
61527;SDS011;47395;42.032;-8.634;2023-07-22T07:07:43;2.55;;;2.38;;
61527;SDS011;47395;42.032;-8.634;2023-07-22T07:09:45;2.38;;;2.20;;
61527;SDS011;47395;42.032;-8.634;2023-07-22T07:11:49;2.92;;;2.70;;
61527;SDS011;47395;42.032;-8.634;2023-07-22T07:13:56;2.30;;;2.20;;
61527;SDS011;47395;42.032;-8.634;2023-07-22T07:15:57;2.40;;;2.30;;
61527;SDS011;47395;42.032;-8.634;2023-07-22T07:18:31;3.40;;;2.58;;
61527;SDS011;47395;42.032;-8.634;2023-07-22T07:20:35;2.30;;;2.20;;
61527;SDS011;47395;42.032;-8.634;2023-07-22T07:22:39;2.33;;;2.20;;
61527;SDS011;47395;42.032;-8.634;2023-07-22T07:24:40;3.10;;;2.85;;
61527;SDS011;47395;42.032;-8.634;2023-07-22T07:26:41;2.45;;;2.25;;
61527;SDS011;47395;42.032;-8.634;2023-07-22T07:28:46;3.35;;;2.40;;
61527;SDS011;47395;42.032;-8.634;2023-07-22T07:30:47;2.85;;;2.00;;
61527;SDS011;47395;42.032;-8.634;2023-07-22T07:32:50;3.45;;;1.98;;
61527;SDS011;47395;42.032;-8.634;2023-07-22T07:34:51;1.70;;;1.48;;
61527;SDS011;47395;42.032;-8.634;2023-07-22T07:36:55;2.08;;;1.98;;
61527;SDS011;47395;42.032;-8.634;2023-07-22T07:38:56;1.98;;;1.88;;
61527;SDS011;47395;42.032;-8.634;2023-07-22T07:41:01;1.83;;;1.73;;
61527;SDS011;47395;42.032;-8.634;2023-07-22T07:43:07;1.90;;;1.80;;
61527;SDS011;47395;42.032;-8.634;2023-07-22T07:45:14;1.90;;;1.80;;
61527;SDS011;47395;42.032;-8.634;2023-07-22T07:47:15;1.70;;;1.60;;
61527;SDS011;47395;42.032;-8.634;2023-07-22T07:49:17;2.70;;;1.55;;
61527;SDS011;47395;42.032;-8.634;2023-07-22T07:51:21;1.90;;;1.80;;
61527;SDS011;47395;42.032;-8.634;2023-07-22T07:53:24;3.22;;;1.80;;
61527;SDS011;47395;42.032;-8.634;2023-07-22T07:55:25;1.90;;;1.80;;
61527;SDS011;47395;42.032;-8.634;2023-07-22T07:57:29;1.73;;;1.73;;
61527;SDS011;47395;42.032;-8.634;2023-07-22T07:59:35;1.90;;;1.80;;
61527;SDS011;47395;42.032;-8.634;2023-07-22T08:01:36;2.05;;;1.95;;
61527;SDS011;47395;42.032;-8.634;2023-07-22T08:03:42;1.60;;;1.58;;
61527;SDS011;47395;42.032;-8.634;2023-07-22T08:05:47;1.63;;;1.63;;
61527;SDS011;47395;42.032;-8.634;2023-07-22T08:07:47;1.70;;;1.70;;
61527;SDS011;47395;42.032;-8.634;2023-07-22T08:09:51;4.55;;;1.70;;
61527;SDS011;47395;42.032;-8.634;2023-07-22T08:11:53;2.92;;;1.80;;
61527;SDS011;47395;42.032;-8.634;2023-07-22T08:13:54;2.30;;;1.73;;
61527;SDS011;47395;42.032;-8.634;2023-07-22T08:15:56;3.65;;;2.10;;
61527;SDS011;47395;42.032;-8.634;2023-07-22T08:18:01;1.73;;;1.60;;
61527;SDS011;47395;42.032;-8.634;2023-07-22T08:20:02;1.70;;;1.60;;
61527;SDS011;47395;42.032;-8.634;2023-07-22T08:22:06;1.70;;;1.60;;
61527;SDS011;47395;42.032;-8.634;2023-07-22T08:24:09;1.90;;;1.80;;
61527;SDS011;47395;42.032;-8.634;2023-07-22T08:26:10;7.85;;;1.80;;
61527;SDS011;47395;42.032;-8.634;2023-07-22T08:28:11;1.52;;;1.50;;
61527;SDS011;47395;42.032;-8.634;2023-07-22T08:30:12;1.83;;;1.73;;
61527;SDS011;47395;42.032;-8.634;2023-07-22T08:32:19;1.73;;;1.60;;
61527;SDS011;47395;42.032;-8.634;2023-07-22T08:34:25;1.90;;;1.80;;
61527;SDS011;47395;42.032;-8.634;2023-07-22T08:36:26;1.90;;;1.80;;
61527;SDS011;47395;42.032;-8.634;2023-07-22T08:38:30;2.10;;;2.00;;
61527;SDS011;47395;42.032;-8.634;2023-07-22T08:40:37;1.77;;;1.67;;
61527;SDS011;47395;42.032;-8.634;2023-07-22T08:42:40;1.70;;;1.60;;
61527;SDS011;47395;42.032;-8.634;2023-07-22T08:44:45;1.67;;;1.67;;
61527;SDS011;47395;42.032;-8.634;2023-07-22T08:46:53;2.85;;;1.90;;
61527;SDS011;47395;42.032;-8.634;2023-07-22T08:48:59;1.98;;;1.88;;
61527;SDS011;47395;42.032;-8.634;2023-07-22T08:51:04;1.80;;;1.80;;
61527;SDS011;47395;42.032;-8.634;2023-07-22T08:53:16;1.85;;;1.75;;
61527;SDS011;47395;42.032;-8.634;2023-07-22T08:55:22;2.00;;;1.90;;
61527;SDS011;47395;42.032;-8.634;2023-07-22T08:57:24;2.95;;;1.70;;
61527;SDS011;47395;42.032;-8.634;2023-07-22T08:59:36;1.90;;;1.80;;
61527;SDS011;47395;42.032;-8.634;2023-07-22T09:01:40;1.73;;;1.63;;
61527;SDS011;47395;42.032;-8.634;2023-07-22T09:05:48;1.88;;;1.77;;
61527;SDS011;47395;42.032;-8.634;2023-07-22T09:07:49;1.63;;;1.52;;
61527;SDS011;47395;42.032;-8.634;2023-07-22T09:09:50;1.70;;;1.60;;
61527;SDS011;47395;42.032;-8.634;2023-07-22T09:14:07;1.35;;;1.30;;
61527;SDS011;47395;42.032;-8.634;2023-07-22T09:16:11;3.17;;;2.42;;
61527;SDS011;47395;42.032;-8.634;2023-07-22T09:18:14;2.10;;;2.00;;
61527;SDS011;47395;42.032;-8.634;2023-07-22T09:20:22;1.98;;;1.88;;
61527;SDS011;47395;42.032;-8.634;2023-07-22T09:22:29;2.20;;;2.00;;
61527;SDS011;47395;42.032;-8.634;2023-07-22T09:24:32;2.03;;;1.83;;
61527;SDS011;47395;42.032;-8.634;2023-07-22T09:26:37;2.80;;;1.90;;
61527;SDS011;47395;42.032;-8.634;2023-07-22T09:28:47;1.90;;;1.80;;
61527;SDS011;47395;42.032;-8.634;2023-07-22T09:30:53;1.80;;;1.70;;
61527;SDS011;47395;42.032;-8.634;2023-07-22T09:35:07;2.17;;;2.00;;
61527;SDS011;47395;42.032;-8.634;2023-07-22T09:37:10;1.77;;;1.67;;
61527;SDS011;47395;42.032;-8.634;2023-07-22T09:39:12;1.90;;;1.80;;
61527;SDS011;47395;42.032;-8.634;2023-07-22T09:41:18;1.70;;;1.60;;
61527;SDS011;47395;42.032;-8.634;2023-07-22T09:43:21;1.70;;;1.60;;
61527;SDS011;47395;42.032;-8.634;2023-07-22T09:45:24;1.65;;;1.55;;
61527;SDS011;47395;42.032;-8.634;2023-07-22T09:47:28;1.70;;;1.60;;
61527;SDS011;47395;42.032;-8.634;2023-07-22T09:49:40;2.40;;;2.20;;
61527;SDS011;47395;42.032;-8.634;2023-07-22T09:51:42;1.63;;;1.52;;
61527;SDS011;47395;42.032;-8.634;2023-07-22T09:53:47;1.88;;;1.77;;
61527;SDS011;47395;42.032;-8.634;2023-07-22T09:56:08;4.20;;;1.60;;
61527;SDS011;47395;42.032;-8.634;2023-07-22T09:58:09;1.90;;;1.80;;
61527;SDS011;47395;42.032;-8.634;2023-07-22T10:00:15;2.08;;;1.90;;
61527;SDS011;47395;42.032;-8.634;2023-07-22T10:02:20;2.13;;;1.92;;
61527;SDS011;47395;42.032;-8.634;2023-07-22T10:04:27;1.70;;;1.60;;
61527;SDS011;47395;42.032;-8.634;2023-07-22T10:06:34;2.10;;;1.85;;
61527;SDS011;47395;42.032;-8.634;2023-07-22T10:08:34;1.90;;;1.80;;
61527;SDS011;47395;42.032;-8.634;2023-07-22T10:10:41;1.77;;;1.67;;
61527;SDS011;47395;42.032;-8.634;2023-07-22T10:12:44;1.80;;;1.70;;
61527;SDS011;47395;42.032;-8.634;2023-07-22T10:14:47;1.75;;;1.65;;
61527;SDS011;47395;42.032;-8.634;2023-07-22T10:16:52;1.77;;;1.67;;
61527;SDS011;47395;42.032;-8.634;2023-07-22T10:18:54;1.42;;;1.42;;
61527;SDS011;47395;42.032;-8.634;2023-07-22T10:21:00;1.90;;;1.80;;
61527;SDS011;47395;42.032;-8.634;2023-07-22T10:23:02;1.73;;;1.63;;
61527;SDS011;47395;42.032;-8.634;2023-07-22T10:25:04;2.13;;;2.03;;
61527;SDS011;47395;42.032;-8.634;2023-07-22T10:27:08;1.92;;;1.83;;
61527;SDS011;47395;42.032;-8.634;2023-07-22T10:29:13;1.52;;;1.52;;
61527;SDS011;47395;42.032;-8.634;2023-07-22T10:31:15;2.58;;;1.60;;
61527;SDS011;47395;42.032;-8.634;2023-07-22T10:33:20;2.00;;;1.88;;
61527;SDS011;47395;42.032;-8.634;2023-07-22T10:37:32;2.05;;;1.95;;
61527;SDS011;47395;42.032;-8.634;2023-07-22T10:39:33;1.98;;;1.88;;
61527;SDS011;47395;42.032;-8.634;2023-07-22T10:41:34;2.25;;;2.08;;
61527;SDS011;47395;42.032;-8.634;2023-07-22T10:43:44;2.97;;;1.73;;
61527;SDS011;47395;42.032;-8.634;2023-07-22T10:45:58;3.08;;;1.45;;
61527;SDS011;47395;42.032;-8.634;2023-07-22T10:48:11;1.95;;;1.85;;
61527;SDS011;47395;42.032;-8.634;2023-07-22T10:50:14;2.17;;;2.05;;
61527;SDS011;47395;42.032;-8.634;2023-07-22T10:54:39;1.80;;;1.75;;
61527;SDS011;47395;42.032;-8.634;2023-07-22T10:56:46;2.00;;;1.90;;
61527;SDS011;47395;42.032;-8.634;2023-07-22T11:00:54;1.63;;;1.63;;
61527;SDS011;47395;42.032;-8.634;2023-07-22T11:03:11;2.15;;;2.05;;
61527;SDS011;47395;42.032;-8.634;2023-07-22T11:05:16;1.75;;;1.73;;
61527;SDS011;47395;42.032;-8.634;2023-07-22T11:07:42;1.77;;;1.75;;
61527;SDS011;47395;42.032;-8.634;2023-07-22T11:09:50;1.83;;;1.77;;
61527;SDS011;47395;42.032;-8.634;2023-07-22T11:16:17;2.17;;;2.08;;
61527;SDS011;47395;42.032;-8.634;2023-07-22T11:18:21;1.75;;;1.67;;
61527;SDS011;47395;42.032;-8.634;2023-07-22T11:20:22;2.67;;;2.55;;
61527;SDS011;47395;42.032;-8.634;2023-07-22T11:22:23;1.70;;;1.70;;
61527;SDS011;47395;42.032;-8.634;2023-07-22T11:24:24;2.47;;;1.83;;
61527;SDS011;47395;42.032;-8.634;2023-07-22T11:26:28;3.75;;;1.63;;
61527;SDS011;47395;42.032;-8.634;2023-07-22T11:28:35;2.33;;;1.60;;
61527;SDS011;47395;42.032;-8.634;2023-07-22T11:30:45;2.17;;;2.00;;
61527;SDS011;47395;42.032;-8.634;2023-07-22T11:32:52;1.63;;;1.60;;
61527;SDS011;47395;42.032;-8.634;2023-07-22T11:34:55;1.95;;;1.85;;
61527;SDS011;47395;42.032;-8.634;2023-07-22T11:36:56;2.38;;;1.98;;
61527;SDS011;47395;42.032;-8.634;2023-07-22T11:39:08;5.45;;;2.08;;
61527;SDS011;47395;42.032;-8.634;2023-07-22T11:41:11;2.20;;;2.10;;
61527;SDS011;47395;42.032;-8.634;2023-07-22T11:43:12;1.80;;;1.70;;
61527;SDS011;47395;42.032;-8.634;2023-07-22T11:45:15;2.42;;;2.05;;
61527;SDS011;47395;42.032;-8.634;2023-07-22T11:47:19;2.33;;;2.15;;
61527;SDS011;47395;42.032;-8.634;2023-07-22T11:51:30;1.83;;;1.73;;
61527;SDS011;47395;42.032;-8.634;2023-07-22T11:53:34;2.28;;;1.75;;
61527;SDS011;47395;42.032;-8.634;2023-07-22T11:55:35;1.85;;;1.75;;
61527;SDS011;47395;42.032;-8.634;2023-07-22T11:57:42;2.10;;;2.00;;
61527;SDS011;47395;42.032;-8.634;2023-07-22T11:59:55;1.92;;;1.83;;
61527;SDS011;47395;42.032;-8.634;2023-07-22T12:02:00;4.88;;;2.22;;
61527;SDS011;47395;42.032;-8.634;2023-07-22T12:04:13;4.40;;;2.20;;
61527;SDS011;47395;42.032;-8.634;2023-07-22T12:08:18;1.73;;;1.63;;
61527;SDS011;47395;42.032;-8.634;2023-07-22T12:10:23;4.00;;;2.10;;
61527;SDS011;47395;42.032;-8.634;2023-07-22T12:12:34;2.22;;;2.10;;
61527;SDS011;47395;42.032;-8.634;2023-07-22T12:14:45;1.88;;;1.88;;
61527;SDS011;47395;42.032;-8.634;2023-07-22T12:16:46;2.08;;;1.98;;
61527;SDS011;47395;42.032;-8.634;2023-07-22T12:18:53;2.35;;;2.15;;
61527;SDS011;47395;42.032;-8.634;2023-07-22T12:23:04;2.30;;;2.20;;
61527;SDS011;47395;42.032;-8.634;2023-07-22T12:25:05;2.03;;;1.92;;
61527;SDS011;47395;42.032;-8.634;2023-07-22T12:27:10;1.70;;;1.70;;
61527;SDS011;47395;42.032;-8.634;2023-07-22T12:29:11;1.92;;;1.83;;
61527;SDS011;47395;42.032;-8.634;2023-07-22T12:31:12;2.10;;;2.00;;
61527;SDS011;47395;42.032;-8.634;2023-07-22T12:33:15;2.10;;;2.00;;
61527;SDS011;47395;42.032;-8.634;2023-07-22T12:35:18;2.35;;;2.10;;
61527;SDS011;47395;42.032;-8.634;2023-07-22T12:37:19;2.00;;;1.90;;
61527;SDS011;47395;42.032;-8.634;2023-07-22T12:39:20;3.38;;;2.17;;
61527;SDS011;47395;42.032;-8.634;2023-07-22T12:41:24;2.28;;;2.17;;
61527;SDS011;47395;42.032;-8.634;2023-07-22T12:43:25;2.20;;;2.10;;
61527;SDS011;47395;42.032;-8.634;2023-07-22T12:45:26;2.20;;;2.10;;